Etusivu
METAR-TAF:

METAR-TAF

Lentoasemat :

Killeen, Texas, Yhdysvallat

Leveyspiiri: 31-05N, Pituuspiiri: 097-41W, korkeus merenpinnasta: 258 m

Tämänhetkinen sää

Tämä raportti tehtiin 21 minuuttia sitten, kello 10.56 UTC
Tuuli 9 kn luoteesta puuskistuen 15 kn:hen
Lämpötila 14°C
Kosteus 55%
Ilmanpaine 1019 hPa
Näkyvyys: 16.1 km
selkeää

METAR: KILE 061056Z AUTO 31009G15KT 10SM CLR 14/05 A3009 RMK AO2 SLP182 T01440050

Aika: 05:17 (11:17 UTC)


TAF: puuttuu

Säähavainnot ja -ennusteet yli 4000 lentoasemalta (METAR- ja TAF-raportit).

Käytössä olevat sääasemat on merkitty karttaan keltaisilla ja punaisilla pisteillä.

Aseta hiiri pisteen päälle nähdäksesi sääaseman nimen.

Klikkaa sitten nähdäksesi säähavainnot ja -ennusteet.

Kartan vaihtaminen: klikkaa mustalla rastilla varustettuja vihreitä pisteitä, niin voit zoomata sisään; viivalla varustettua vihreää pistettä, niin voit zoomata ulos tai vihreitä nuolia, niin pääset viereisille kartoille.


METAR-TAF: